Time;durP1;ratioP1;P1;durP2;ratioP2;P2;SDS_P1;SDS_P2;PMS_P1;PMS_P2;Temp;Humidity;BMP_temperature;BMP_pressure;BME280_temperature;BME280_humidity;BME280_pressure;Samples;Min_cycle;Max_cycle;Signal;HPM_P1;HPM_P2
2023/12/13 00:00:29;;;;;;;173.07;83.97;;;;;;;4.46;91.66;98741.69;5032676;28;20056;-76
2023/12/13 00:03:14;;;;;;;165.20;84.25;;;;;;;4.50;91.68;98744.72;5035027;28;20068;-77
2023/12/13 00:06:00;;;;;;;163.65;81.28;;;;;;;4.53;91.45;98749.56;5028656;28;20068;-75
2023/12/13 00:08:46;;;;;;;158.23;76.63;;;;;;;4.53;91.33;98754.84;5036618;28;20051;-76
2023/12/13 00:11:31;;;;;;;158.80;81.13;;;;;;;4.57;91.54;98758.69;5035969;28;20067;-76
2023/12/13 00:14:18;;;;;;;191.60;95.30;;;;;;;4.61;91.54;98754.66;5029734;28;20503;-78
2023/12/13 00:17:04;;;;;;;183.77;89.78;;;;;;;4.56;91.20;98736.00;5036552;28;20057;-78
2023/12/13 00:19:49;;;;;;;151.13;73.95;;;;;;;4.64;91.45;98747.16;5036263;28;20067;-78
2023/12/13 00:22:40;;;;;;;154.50;75.10;;;;;;;4.65;91.42;98742.69;5030053;28;20048;-77
2023/12/13 00:25:25;;;;;;;133.95;65.88;;;;;;;4.58;91.40;98740.06;5029368;28;20076;-77
2023/12/13 00:28:11;;;;;;;153.30;74.30;;;;;;;4.61;91.34;98750.19;5028508;28;20365;-77
2023/12/13 00:30:56;;;;;;;143.20;67.10;;;;;;;4.64;91.57;98749.78;5036656;28;20048;-77
2023/12/13 00:33:45;;;;;;;121.20;57.40;;;;;;;4.61;91.67;98750.19;5029575;28;20076;-78
2023/12/13 00:36:29;;;;;;;111.15;55.13;;;;;;;4.65;91.60;98747.97;5028914;28;20059;-77
2023/12/13 00:39:16;;;;;;;129.98;62.35;;;;;;;4.57;91.67;98730.53;5029846;28;20124;-77
2023/12/13 00:42:01;;;;;;;135.27;63.30;;;;;;;4.66;91.80;98741.69;5036343;28;20099;-77
2023/12/13 00:44:46;;;;;;;143.75;64.25;;;;;;;4.57;91.73;98733.16;5035403;28;20044;-77
2023/12/13 00:47:32;;;;;;;123.47;60.00;;;;;;;4.67;91.75;98745.13;5036195;28;20048;-77
2023/12/13 00:50:18;;;;;;;146.15;72.90;;;;;;;4.64;91.64;98736.63;5036588;28;20469;-77
2023/12/13 00:53:03;;;;;;;146.85;69.30;;;;;;;4.66;91.58;98730.34;5035931;28;20483;-76
2023/12/13 00:56:12;;;;;;;130.23;60.55;;;;;;;4.70;91.44;98739.44;5029019;28;20079;-77
2023/12/13 00:58:57;;;;;;;110.90;54.63;;;;;;;4.71;91.48;98733.19;5034645;28;20060;-77
2023/12/13 01:01:47;;;;;;;126.20;58.40;;;;;;;4.64;91.54;98723.47;5028593;28;20401;-76
2023/12/13 01:04:35;;;;;;;115.72;58.30;;;;;;;4.67;91.41;98706.47;5035166;28;20491;-79
2023/12/13 01:07:21;;;;;;;123.38;57.20;;;;;;;4.67;91.44;98708.25;5029222;28;20132;-75
2023/12/13 01:10:07;;;;;;;115.32;58.65;;;;;;;4.60;91.67;98701.19;5028953;28;20056;-77
2023/12/13 01:12:52;;;;;;;102.18;52.15;;;;;;;4.61;91.85;98694.91;5034720;28;20397;-76
2023/12/13 01:15:37;;;;;;;95.63;48.88;;;;;;;4.68;91.42;98696.75;5035292;28;20068;-77
2023/12/13 01:18:22;;;;;;;88.18;46.40;;;;;;;4.76;91.31;98699.94;5028954;28;20064;-76
2023/12/13 01:21:08;;;;;;;100.15;47.72;;;;;;;4.77;91.25;98690.25;5029364;28;20056;-78
2023/12/13 01:23:53;;;;;;;73.10;41.35;;;;;;;4.85;91.04;98692.66;5033866;28;20408;-77
2023/12/13 01:26:39;;;;;;;80.30;41.05;;;;;;;4.80;90.97;98684.56;5027598;28;20071;-76
2023/12/13 01:29:25;;;;;;;84.75;43.42;;;;;;;4.91;90.65;98704.19;5034347;28;20067;-77
2023/12/13 01:32:11;;;;;;;81.20;41.47;;;;;;;4.90;90.23;98687.59;5028332;28;20509;-77
2023/12/13 01:34:56;;;;;;;97.60;44.22;;;;;;;4.94;90.39;98688.78;5033710;28;20483;-76
2023/12/13 01:37:41;;;;;;;100.30;48.55;;;;;;;4.95;90.47;98674.63;5027206;28;20068;-76
2023/12/13 01:40:26;;;;;;;98.43;47.22;;;;;;;4.90;89.99;98658.63;5033344;28;20396;-76
2023/12/13 01:43:21;;;;;;;96.38;46.83;;;;;;;4.91;89.99;98654.16;5035313;28;20056;-76
2023/12/13 01:46:07;;;;;;;108.00;50.83;;;;;;;4.90;90.33;98650.72;5028662;28;20384;-76
2023/12/13 01:48:52;;;;;;;104.03;55.45;;;;;;;4.84;90.63;98657.63;5033751;28;20048;-77
2023/12/13 01:51:39;;;;;;;100.50;51.03;;;;;;;4.68;90.89;98650.16;5035273;28;20384;-76
2023/12/13 01:54:24;;;;;;;114.15;54.53;;;;;;;4.67;90.81;98653.00;5033516;28;20479;-77
2023/12/13 01:57:10;;;;;;;108.80;54.75;;;;;;;4.73;90.99;98658.25;5032924;28;20508;-76
2023/12/13 01:59:55;;;;;;;112.07;56.15;;;;;;;4.71;90.71;98670.00;5026958;28;20048;-76
2023/12/13 02:02:41;;;;;;;115.18;59.95;;;;;;;4.62;91.03;98659.69;5027257;28;20392;-77
2023/12/13 02:05:28;;;;;;;127.93;60.88;;;;;;;4.64;90.58;98660.31;5027189;28;20068;-77
2023/12/13 02:08:13;;;;;;;119.82;57.00;;;;;;;4.58;91.52;98650.59;5027266;28;20052;-77
2023/12/13 02:11:00;;;;;;;112.20;57.70;;;;;;;4.61;91.57;98650.19;5032798;28;20601;-76
2023/12/13 02:13:45;;;;;;;117.68;53.90;;;;;;;4.65;91.64;98653.22;5027292;28;20060;-76
2023/12/13 02:16:32;;;;;;;159.07;70.13;;;;;;;4.68;91.88;98658.06;5032911;28;20415;-77
2023/12/13 02:19:17;;;;;;;121.10;55.88;;;;;;;4.74;91.51;98659.06;5027348;28;20488;-75
2023/12/13 02:22:06;;;;;;;120.00;56.50;;;;;;;4.79;91.62;98651.34;5037150;28;20404;-76
2023/12/13 02:24:52;;;;;;;128.07;55.97;;;;;;;4.74;91.27;98638.81;5038562;28;20052;-77
2023/12/13 02:27:37;;;;;;;87.43;43.88;;;;;;;4.96;91.37;98662.25;5037493;28;20055;-76
2023/12/13 02:30:23;;;;;;;96.47;45.25;;;;;;;4.94;91.02;98636.13;5038052;28;20075;-75
2023/12/13 02:33:08;;;;;;;90.13;43.08;;;;;;;5.03;90.73;98636.72;5031882;28;20056;-75
2023/12/13 02:35:59;;;;;;;79.30;39.47;;;;;;;5.09;90.62;98634.03;5035914;28;20056;-77
2023/12/13 02:38:46;;;;;;;87.40;41.90;;;;;;;5.06;90.28;98626.56;5036010;28;20052;-76
2023/12/13 02:41:32;;;;;;;83.70;42.58;;;;;;;5.15;90.35;98629.78;5032042;28;20091;-77
2023/12/13 02:44:17;;;;;;;96.75;48.28;;;;;;;5.08;90.51;98602.66;5029734;28;20040;-78
2023/12/13 02:47:03;;;;;;;105.20;49.75;;;;;;;5.13;90.48;98604.66;5037490;28;20048;-76
2023/12/13 02:49:48;;;;;;;100.07;49.67;;;;;;;5.12;90.65;98611.75;5037233;28;20063;-78
2023/12/13 02:52:34;;;;;;;79.13;42.13;;;;;;;5.12;90.57;98587.25;5038282;28;20392;-77
2023/12/13 02:55:20;;;;;;;73.15;37.10;;;;;;;5.11;90.71;98575.91;5031776;28;20408;-77
2023/12/13 02:58:06;;;;;;;69.72;36.63;;;;;;;5.10;90.60;98550.56;5031462;28;20044;-77
2023/12/13 03:00:51;;;;;;;69.35;34.72;;;;;;;5.15;90.66;98561.28;5034591;28;20052;-77
2023/12/13 03:03:36;;;;;;;71.45;35.58;;;;;;;5.19;90.28;98573.00;5030357;28;20048;-77
2023/12/13 03:06:23;;;;;;;67.88;34.63;;;;;;;5.25;90.16;98576.63;5030889;28;20484;-76
2023/12/13 03:09:09;;;;;;;63.63;33.78;;;;;;;5.21;89.67;98555.19;5038187;28;20052;-77
2023/12/13 03:11:54;;;;;;;60.67;33.00;;;;;;;5.21;90.38;98549.09;5037707;28;20056;-78
2023/12/13 03:14:40;;;;;;;61.55;30.92;;;;;;;5.20;90.10;98542.19;5031254;28;20491;-76
2023/12/13 03:17:25;;;;;;;57.78;30.85;;;;;;;5.18;90.34;98544.25;5038335;28;20072;-77
2023/12/13 03:20:11;;;;;;;67.50;33.40;;;;;;;5.13;90.63;98525.63;5036639;28;20408;-77
2023/12/13 03:22:56;;;;;;;75.15;36.38;;;;;;;5.05;90.34;98519.59;5036656;28;20476;-75
2023/12/13 03:25:42;;;;;;;65.90;34.22;;;;;;;5.11;90.30;98528.50;5036436;28;20052;-77
2023/12/13 03:28:27;;;;;;;56.10;29.70;;;;;;;5.20;90.37;98524.59;5037760;28;20048;-77
2023/12/13 03:31:12;;;;;;;55.63;29.45;;;;;;;5.26;89.95;98522.91;5036915;28;20048;-76
2023/12/13 03:34:00;;;;;;;49.88;28.48;;;;;;;5.33;89.94;98515.78;5036759;28;20493;-76
2023/12/13 03:36:46;;;;;;;69.10;34.25;;;;;;;5.25;90.02;98497.59;5037665;28;20064;-77
2023/12/13 03:39:31;;;;;;;72.32;36.25;;;;;;;5.33;89.85;98500.00;5030887;28;20060;-77
2023/12/13 03:42:17;;;;;;;71.32;36.83;;;;;;;5.34;89.44;98496.31;5030338;28;20483;-76
2023/12/13 03:45:03;;;;;;;87.15;42.47;;;;;;;5.27;89.81;98488.47;5037214;28;20044;-76
2023/12/13 03:47:48;;;;;;;69.85;36.63;;;;;;;5.27;90.26;98500.84;5037527;28;20405;-76
2023/12/13 03:50:33;;;;;;;52.05;29.23;;;;;;;5.18;90.29;98496.84;5029345;28;20483;-76
2023/12/13 03:53:19;;;;;;;60.17;29.85;;;;;;;5.17;90.36;98513.66;5037195;28;20395;-76
2023/12/13 03:56:05;;;;;;;52.65;30.15;;;;;;;5.07;90.47;98501.75;5036291;28;20499;-76
2023/12/13 03:58:50;;;;;;;54.50;29.75;;;;;;;5.12;90.13;98498.50;5030412;28;20048;-76
2023/12/13 04:01:36;;;;;;;55.40;29.58;;;;;;;5.19;90.05;98498.44;5031902;28;20395;-76
2023/12/13 04:04:21;;;;;;;60.17;31.27;;;;;;;5.15;90.02;98498.06;5036203;28;20175;-77
2023/12/13 04:07:08;;;;;;;58.30;31.48;;;;;;;5.14;89.91;98512.28;5030031;28;20475;-77
2023/12/13 04:09:53;;;;;;;58.03;30.30;;;;;;;5.16;90.59;98496.25;5037008;28;20399;-76
2023/12/13 04:12:38;;;;;;;54.08;30.38;;;;;;;5.12;90.35;98482.69;5035185;28;20471;-77
2023/12/13 04:15:23;;;;;;;58.78;31.98;;;;;;;5.11;90.88;98491.63;5036812;28;20052;-76
2023/12/13 04:18:08;;;;;;;52.85;30.17;;;;;;;5.04;90.77;98470.56;5029792;28;20377;-78
2023/12/13 04:20:54;;;;;;;55.95;31.20;;;;;;;5.03;90.66;98450.53;5035875;28;20404;-78
2023/12/13 04:23:39;;;;;;;90.10;42.80;;;;;;;5.11;90.75;98446.84;5029356;28;20071;-76
2023/12/13 04:26:27;;;;;;;69.30;35.97;;;;;;;5.48;90.42;98460.94;5029387;28;20479;-76
2023/12/13 04:29:13;;;;;;;93.60;42.38;;;;;;;5.61;90.30;98465.31;5036397;28;20396;-76
2023/12/13 04:31:58;;;;;;;68.63;33.20;;;;;;;5.53;89.32;98462.94;5036261;28;20491;-79
2023/12/13 04:34:44;;;;;;;63.15;32.80;;;;;;;5.48;89.28;98454.84;5034900;28;20404;-76
2023/12/13 04:37:29;;;;;;;63.38;31.38;;;;;;;5.37;88.88;98459.00;5036656;28;20060;-79
2023/12/13 04:40:15;;;;;;;60.88;31.63;;;;;;;5.21;89.27;98464.81;5035638;28;20492;-77
2023/12/13 04:43:02;;;;;;;65.15;33.47;;;;;;;5.13;89.59;98452.69;5035080;28;20499;-77
2023/12/13 04:45:47;;;;;;;51.47;26.77;;;;;;;5.25;89.98;98455.44;5035728;28;20055;-78
2023/12/13 04:48:33;;;;;;;61.92;30.77;;;;;;;5.16;89.99;98462.00;5036015;28;20482;-78
2023/12/13 04:51:18;;;;;;;68.45;35.13;;;;;;;5.07;90.16;98454.34;5029798;28;20415;-78
2023/12/13 04:54:04;;;;;;;61.08;31.75;;;;;;;5.06;90.18;98444.03;5034756;28;20483;-78
2023/12/13 04:56:49;;;;;;;44.47;23.88;;;;;;;5.01;90.63;98428.84;5034811;28;20071;-77
2023/12/13 04:59:34;;;;;;;45.35;26.15;;;;;;;5.09;90.40;98418.06;5034821;28;20389;-79
2023/12/13 05:02:19;;;;;;;31.02;18.17;;;;;;;6.08;90.87;98409.50;5033510;28;20491;-78
2023/12/13 05:05:05;;;;;;;6.05;4.22;;;;;;;8.05;88.97;98424.41;5035484;28;20123;-77
2023/12/13 05:07:50;;;;;;;12.30;7.47;;;;;;;9.15;82.23;98430.50;5027694;28;20055;-77
2023/12/13 05:10:37;;;;;;;21.38;8.38;;;;;;;9.64;78.49;98420.94;5034954;28;20048;-77
2023/12/13 05:13:23;;;;;;;5.93;3.45;;;;;;;10.03;76.73;98418.31;5027935;28;20071;-77
2023/12/13 05:16:09;;;;;;;8.02;3.92;;;;;;;10.27;76.02;98395.00;5033948;28;20048;-76
2023/12/13 05:18:54;;;;;;;10.38;4.78;;;;;;;10.28;75.38;98411.72;5034175;28;20400;-76
2023/12/13 05:21:40;;;;;;;5.72;3.28;;;;;;;10.30;75.93;98418.41;5034267;28;20099;-77
2023/12/13 05:24:25;;;;;;;9.27;5.32;;;;;;;10.24;74.07;98429.97;5034728;28;20488;-77
2023/12/13 05:27:11;;;;;;;11.57;7.03;;;;;;;9.96;75.13;98431.75;5027503;28;20400;-77
2023/12/13 05:29:57;;;;;;;72.60;33.05;;;;;;;9.02;75.74;98418.34;5034563;28;20051;-77
2023/12/13 05:32:42;;;;;;;71.55;32.50;;;;;;;7.87;78.19;98399.72;5026650;28;20480;-77
2023/12/13 05:35:28;;;;;;;36.83;21.15;;;;;;;7.53;81.05;98434.91;5032578;28;20427;-77
2023/12/13 05:38:13;;;;;;;18.45;9.98;;;;;;;7.82;82.69;98455.16;5034227;28;20169;-77
2023/12/13 05:40:59;;;;;;;6.22;4.20;;;;;;;9.04;80.33;98453.38;5026486;28;20388;-77
2023/12/13 05:43:45;;;;;;;10.00;5.70;;;;;;;9.44;77.31;98420.66;5033304;28;20567;-77
2023/12/13 05:46:34;;;;;;;17.88;8.60;;;;;;;9.47;77.16;98422.81;5026933;28;20048;-77
2023/12/13 05:49:19;;;;;;;62.13;28.42;;;;;;;8.77;77.64;98411.59;5034581;28;20048;-78
2023/12/13 05:52:04;;;;;;;58.53;27.75;;;;;;;8.28;78.66;98399.75;5032383;28;20063;-76
2023/12/13 05:54:50;;;;;;;56.78;29.77;;;;;;;7.99;79.80;98401.53;5034089;28;20287;-76
2023/12/13 05:57:35;;;;;;;52.08;26.77;;;;;;;7.41;81.28;98414.56;5038087;28;20084;-77
2023/12/13 06:00:21;;;;;;;45.05;27.05;;;;;;;7.20;83.20;98420.38;5035687;28;20056;-76
2023/12/13 06:03:06;;;;;;;57.10;29.65;;;;;;;7.17;83.62;98415.56;5038571;28;20071;-77
2023/12/13 06:05:54;;;;;;;50.28;28.48;;;;;;;6.99;84.14;98407.69;5037107;28;20499;-78
2023/12/13 06:08:41;;;;;;;53.05;29.00;;;;;;;6.91;84.88;98398.28;5036528;28;20056;-77
2023/12/13 06:11:27;;;;;;;54.65;28.52;;;;;;;6.87;85.63;98400.56;5037221;28;20476;-77
2023/12/13 06:14:13;;;;;;;10.85;6.00;;;;;;;8.34;85.46;98407.56;5036535;28;20400;-76
2023/12/13 06:16:58;;;;;;;5.60;2.97;;;;;;;9.85;78.67;98406.13;5037382;28;20064;-75
2023/12/13 06:19:44;;;;;;;5.85;3.30;;;;;;;10.47;75.37;98399.75;5030859;28;20511;-77
2023/12/13 06:22:30;;;;;;;4.80;3.15;;;;;;;10.81;73.41;98405.69;5037097;28;20052;-77
2023/12/13 06:25:15;;;;;;;6.47;4.28;;;;;;;10.76;74.51;98423.44;5037591;28;20068;-76
2023/12/13 06:28:01;;;;;;;7.75;4.50;;;;;;;10.91;73.38;98410.31;5037412;28;20071;-76
2023/12/13 06:30:46;;;;;;;7.38;4.57;;;;;;;11.19;72.35;98413.72;5037543;28;20047;-76
2023/12/13 06:33:32;;;;;;;10.68;6.13;;;;;;;11.21;71.27;98393.00;5029567;28;20052;-75
2023/12/13 06:36:18;;;;;;;7.60;4.75;;;;;;;11.28;72.07;98394.41;5037315;28;20511;-77
2023/12/13 06:39:04;;;;;;;6.13;3.47;;;;;;;11.31;71.31;98393.06;5037318;28;20400;-76
2023/12/13 06:41:49;;;;;;;9.98;5.82;;;;;;;11.17;71.62;98383.94;5031128;28;20036;-77
2023/12/13 06:44:38;;;;;;;6.68;4.50;;;;;;;11.25;72.07;98396.75;5037377;28;20491;-76
2023/12/13 06:47:24;;;;;;;10.70;6.05;;;;;;;11.31;72.17;98390.41;5036122;28;20087;-76
2023/12/13 06:50:10;;;;;;;14.85;8.82;;;;;;;11.62;70.35;98380.78;5037731;28;20079;-76
2023/12/13 06:52:55;;;;;;;10.23;6.22;;;;;;;11.57;69.93;98360.28;5030558;28;20071;-76
2023/12/13 06:55:41;;;;;;;12.00;5.95;;;;;;;11.49;70.73;98351.97;5021874;28;20052;-76
2023/12/13 06:58:26;;;;;;;8.20;5.68;;;;;;;11.45;71.24;98354.34;5029122;28;20518;-77
2023/12/13 07:01:12;;;;;;;15.50;10.93;;;;;;;11.47;70.90;98368.22;5031698;28;20044;-77
2023/12/13 07:03:58;;;;;;;9.77;5.40;;;;;;;11.55;70.79;98375.69;5037783;28;20041;-75
2023/12/13 07:06:44;;;;;;;10.18;6.82;;;;;;;11.60;69.82;98376.81;5037473;28;20059;-76
2023/12/13 07:09:30;;;;;;;6.47;2.83;;;;;;;11.83;69.61;98379.06;5036523;28;20400;-76
2023/12/13 07:12:15;;;;;;;6.85;4.43;;;;;;;11.89;68.57;98378.06;5037919;28;20055;-78
2023/12/13 07:15:03;;;;;;;7.75;5.72;;;;;;;11.68;69.80;98387.75;5037362;28;20475;-75
2023/12/13 07:17:49;;;;;;;18.92;9.10;;;;;;;11.56;70.42;98382.63;5037181;28;20400;-76
2023/12/13 07:20:34;;;;;;;31.90;16.63;;;;;;;11.60;69.43;98392.78;5037492;28;20044;-76
2023/12/13 07:23:20;;;;;;;48.97;23.55;;;;;;;11.51;70.43;98387.91;5041977;28;20056;-78
2023/12/13 07:26:06;;;;;;;10.02;5.75;;;;;;;11.53;69.77;98369.03;5040520;28;20040;-77
2023/12/13 07:28:52;;;;;;;14.65;8.55;;;;;;;11.52;70.64;98365.56;5032500;28;20040;-77
2023/12/13 07:31:41;;;;;;;25.08;14.25;;;;;;;11.59;70.00;98354.69;5037236;28;20400;-74
2023/12/13 07:34:27;;;;;;;6.97;4.20;;;;;;;11.84;69.06;98347.91;5031169;28;20057;-76
2023/12/13 07:37:13;;;;;;;26.05;15.73;;;;;;;11.96;68.59;98336.00;5034843;28;20056;-77
2023/12/13 07:39:58;;;;;;;6.45;4.00;;;;;;;12.12;68.60;98339.53;5045574;28;20404;-77
2023/12/13 07:42:46;;;;;;;5.40;2.80;;;;;;;12.29;67.09;98333.22;5043665;28;20729;-77
2023/12/13 07:45:31;;;;;;;18.13;10.60;;;;;;;12.27;67.90;98341.47;5030397;28;20093;-77
2023/12/13 07:48:19;;;;;;;5.72;3.90;;;;;;;12.25;67.67;98339.06;5030002;28;20048;-76
2023/12/13 07:51:04;;;;;;;9.90;5.50;;;;;;;12.16;67.01;98329.16;5037067;28;20063;-75
2023/12/13 07:53:50;;;;;;;11.82;7.50;;;;;;;12.10;67.58;98319.56;5030399;28;20068;-78
2023/12/13 07:56:35;;;;;;;31.17;16.55;;;;;;;12.00;68.44;98338.94;5036603;28;20052;-78
2023/12/13 07:59:21;;;;;;;35.25;19.70;;;;;;;11.74;69.52;98330.03;5036768;28;20060;-77
2023/12/13 08:02:07;;;;;;;35.05;18.35;;;;;;;11.66;70.33;98322.53;5030944;28;20399;-77
2023/12/13 08:04:52;;;;;;;25.92;12.32;;;;;;;11.07;70.88;98312.88;5036928;28;20060;-77
2023/12/13 08:07:38;;;;;;;26.60;15.77;;;;;;;10.93;72.19;98314.34;5030167;28;20064;-79
2023/12/13 08:10:23;;;;;;;26.00;14.63;;;;;;;10.84;72.78;98317.47;5037033;28;20392;-78
2023/12/13 08:13:09;;;;;;;30.35;15.85;;;;;;;10.96;72.62;98321.81;5029327;28;20064;-76
2023/12/13 08:15:55;;;;;;;26.23;13.02;;;;;;;10.85;71.82;98340.34;5036915;28;20475;-77
2023/12/13 08:18:41;;;;;;;28.98;15.43;;;;;;;10.79;72.23;98348.53;5035440;28;20408;-76
2023/12/13 08:21:27;;;;;;;52.97;24.02;;;;;;;10.80;72.96;98345.59;5036669;28;20056;-76
2023/12/13 08:24:12;;;;;;;37.88;16.20;;;;;;;10.71;72.92;98325.84;5029925;28;20507;-77
2023/12/13 08:26:58;;;;;;;23.70;10.85;;;;;;;10.89;72.17;98332.66;5035289;28;20405;-77
2023/12/13 08:29:43;;;;;;;32.10;16.73;;;;;;;11.05;71.70;98326.41;5035924;28;20068;-77
2023/12/13 08:32:29;;;;;;;41.03;20.92;;;;;;;11.23;71.34;98322.56;5036538;28;20467;-77
2023/12/13 08:35:15;;;;;;;27.92;14.48;;;;;;;11.33;70.88;98321.81;5030130;28;20052;-76
2023/12/13 08:38:01;;;;;;;12.40;7.65;;;;;;;11.56;70.05;98308.13;5036129;28;20072;-76
2023/12/13 08:40:47;;;;;;;21.55;11.13;;;;;;;11.73;69.79;98299.16;5029145;28;20479;-76
2023/12/13 08:43:32;;;;;;;12.50;6.07;;;;;;;11.97;68.14;98303.03;5036141;28;20059;-75
2023/12/13 08:46:18;;;;;;;15.40;8.80;;;;;;;12.06;67.96;98291.84;5035004;28;20499;-76
2023/12/13 08:49:04;;;;;;;12.45;6.82;;;;;;;12.17;67.35;98288.16;5029351;28;20484;-75
2023/12/13 08:51:49;;;;;;;24.50;12.02;;;;;;;12.17;67.46;98275.63;5036164;28;20487;-77
2023/12/13 08:54:35;;;;;;;12.23;6.85;;;;;;;12.22;67.57;98286.31;5035933;28;20103;-77
2023/12/13 08:57:20;;;;;;;11.32;6.60;;;;;;;12.23;67.48;98271.13;5028989;28;20518;-77
2023/12/13 09:00:07;;;;;;;17.52;8.02;;;;;;;12.33;66.63;98270.34;5028885;28;20420;-77
2023/12/13 09:02:53;;;;;;;14.88;7.88;;;;;;;12.46;66.54;98256.50;5035400;28;20423;-76
2023/12/13 09:05:38;;;;;;;21.33;11.63;;;;;;;12.42;66.34;98245.56;5028363;28;20507;-75
2023/12/13 09:08:25;;;;;;;10.50;5.93;;;;;;;12.59;65.75;98250.63;5028295;28;20471;-77
2023/12/13 09:11:11;;;;;;;16.25;7.65;;;;;;;12.67;65.01;98244.78;5028910;28;20401;-75
2023/12/13 09:13:56;;;;;;;12.20;5.85;;;;;;;12.65;65.93;98244.25;5030062;28;20507;-77
2023/12/13 09:16:41;;;;;;;7.72;5.47;;;;;;;12.70;66.27;98225.59;5028593;28;20056;-76
2023/12/13 09:19:27;;;;;;;14.18;7.63;;;;;;;12.73;65.74;98221.59;5035666;28;20044;-77
2023/12/13 09:22:13;;;;;;;10.15;5.30;;;;;;;12.83;65.41;98234.91;5027488;28;20040;-76
2023/12/13 09:24:58;;;;;;;17.50;8.85;;;;;;;12.89;65.95;98220.50;5035526;28;20063;-76
2023/12/13 09:27:46;;;;;;;9.93;6.05;;;;;;;13.15;64.80;98221.25;5035251;28;20392;-76
2023/12/13 09:30:31;;;;;;;14.65;8.23;;;;;;;13.36;64.20;98215.91;5035271;28;20475;-75
2023/12/13 09:33:17;;;;;;;14.57;8.70;;;;;;;13.23;64.48;98198.56;5028973;28;20396;-77
2023/12/13 09:36:03;;;;;;;26.60;11.70;;;;;;;13.44;64.03;98207.31;5034761;28;20067;-75
2023/12/13 09:38:48;;;;;;;18.33;7.88;;;;;;;13.31;64.67;98198.03;5034652;28;20048;-76
2023/12/13 09:41:43;;;;;;;15.60;6.95;;;;;;;13.54;64.01;98193.16;5034819;28;20400;-76
2023/12/13 09:44:29;;;;;;;8.95;4.55;;;;;;;13.73;62.67;98194.13;5034359;28;20048;-76
2023/12/13 09:47:16;;;;;;;25.50;12.48;;;;;;;13.88;62.33;98191.38;5028172;28;20051;-76
2023/12/13 09:50:02;;;;;;;16.35;7.95;;;;;;;13.75;63.13;98178.59;5034737;28;20472;-75
2023/12/13 09:52:47;;;;;;;13.88;8.23;;;;;;;13.99;62.30;98175.28;5020172;28;20047;-76
2023/12/13 09:55:35;;;;;;;13.52;6.38;;;;;;;14.12;61.99;98163.97;5033654;28;20048;-76
2023/12/13 09:58:20;;;;;;;11.15;5.72;;;;;;;14.07;61.18;98150.63;5028363;28;20495;-77
2023/12/13 10:01:14;;;;;;;17.63;7.18;;;;;;;14.04;61.31;98159.19;5028892;28;20075;-75
2023/12/13 10:04:00;;;;;;;5.60;3.70;;;;;;;13.63;62.87;98143.44;5027883;28;20476;-76
2023/12/13 10:06:46;;;;;;;7.53;4.10;;;;;;;13.52;63.63;98147.25;5033869;28;20056;-76
2023/12/13 10:09:32;;;;;;;13.23;7.25;;;;;;;13.53;64.40;98160.31;5034496;28;20064;-75
2023/12/13 10:12:18;;;;;;;7.53;3.75;;;;;;;13.48;64.16;98146.22;5028398;28;20472;-75
2023/12/13 10:15:08;;;;;;;12.55;5.63;;;;;;;13.49;64.54;98147.78;5027876;28;20064;-77
2023/12/13 10:17:54;;;;;;;14.80;7.10;;;;;;;13.47;64.98;98145.38;5034503;28;20475;-75
2023/12/13 10:20:39;;;;;;;8.25;4.65;;;;;;;13.49;64.64;98134.44;5035193;28;20067;-78
2023/12/13 10:23:24;;;;;;;15.23;8.15;;;;;;;13.53;64.92;98133.63;5035129;28;20072;-76
2023/12/13 10:26:12;;;;;;;17.35;9.25;;;;;;;13.51;64.94;98108.28;5034512;28;20044;-76
2023/12/13 10:29:00;;;;;;;15.77;8.15;;;;;;;13.60;64.20;98128.78;5033156;28;20480;-76
2023/12/13 10:31:45;;;;;;;8.68;5.18;;;;;;;13.63;64.09;98116.75;5034357;28;20052;-77
2023/12/13 10:34:31;;;;;;;16.08;9.50;;;;;;;13.67;64.08;98117.81;5034845;28;20063;-77
2023/12/13 10:37:17;;;;;;;24.67;11.70;;;;;;;13.62;64.75;98107.16;5027694;28;20480;-75
2023/12/13 10:40:06;;;;;;;14.10;7.25;;;;;;;13.92;64.49;98108.03;5034062;28;20056;-77
2023/12/13 10:42:55;;;;;;;10.57;6.45;;;;;;;14.25;61.91;98093.06;5031174;28;20102;-77
2023/12/13 10:45:45;;;;;;;12.57;7.70;;;;;;;14.80;59.37;98091.75;5031339;28;20380;-76
2023/12/13 10:48:33;;;;;;;5.40;3.35;;;;;;;15.15;57.52;98092.41;5032073;28;20476;-77
2023/12/13 10:51:18;;;;;;;11.20;6.13;;;;;;;15.16;57.93;98082.47;5036794;28;20400;-77
2023/12/13 10:54:04;;;;;;;12.13;7.18;;;;;;;15.32;57.33;98073.16;5031352;28;20059;-76
2023/12/13 10:56:50;;;;;;;12.93;6.88;;;;;;;15.44;56.67;98089.59;5038209;28;20503;-76
2023/12/13 10:59:36;;;;;;;8.85;5.72;;;;;;;15.43;57.24;98076.50;5036361;28;20067;-76
2023/12/13 11:02:23;;;;;;;8.25;4.80;;;;;;;15.43;57.01;98069.28;5031675;28;20487;-76
2023/12/13 11:05:09;;;;;;;14.90;7.78;;;;;;;15.45;57.47;98069.00;5036938;28;20559;-77
2023/12/13 11:07:55;;;;;;;5.70;4.18;;;;;;;15.49;57.86;98068.13;5037567;28;20404;-77
2023/12/13 11:11:00;;;;;;;6.32;4.43;;;;;;;15.54;56.97;98061.09;5038389;28;20132;-77
2023/12/13 11:13:49;;;;;;;16.38;10.32;;;;;;;15.55;56.38;98052.78;5037001;28;20040;-76
2023/12/13 11:16:40;;;;;;;10.93;6.70;;;;;;;15.67;55.74;98050.50;5030698;28;20483;-78
2023/12/13 11:19:25;;;;;;;13.80;9.32;;;;;;;15.65;56.48;98054.50;5037383;28;20052;-76
2023/12/13 11:22:14;;;;;;;7.13;3.75;;;;;;;15.76;55.79;98044.47;5037517;28;21021;-78
2023/12/13 11:25:03;;;;;;;4.40;2.85;;;;;;;15.67;55.80;98026.38;5037742;28;20388;-77
2023/12/13 11:27:53;;;;;;;6.82;4.32;;;;;;;15.61;56.92;98024.84;5030064;28;20044;-77
2023/12/13 11:30:41;;;;;;;7.70;4.82;;;;;;;15.71;56.44;98030.06;5035781;28;20048;-77
2023/12/13 11:33:34;;;;;;;4.68;3.30;;;;;;;15.76;56.54;98031.06;5035969;28;20475;-78
2023/12/13 11:36:29;;;;;;;8.32;4.82;;;;;;;15.76;55.67;98033.75;5037850;28;20072;-78
2023/12/13 11:39:14;;;;;;;11.07;6.50;;;;;;;15.73;56.59;98027.91;5037552;28;20059;-78
2023/12/13 11:42:07;;;;;;;9.50;6.00;;;;;;;15.82;55.33;98024.53;5029438;28;20487;-78
2023/12/13 11:44:52;;;;;;;7.60;4.43;;;;;;;15.89;55.79;98012.38;5037938;28;20501;-78
2023/12/13 11:47:39;;;;;;;5.97;3.05;;;;;;;15.90;55.10;98011.28;5030251;28;20060;-79
2023/12/13 11:50:24;;;;;;;13.07;7.15;;;;;;;16.00;54.83;98014.88;5036834;28;20048;-77
2023/12/13 11:53:10;;;;;;;12.48;6.45;;;;;;;15.95;54.84;98013.06;5029204;28;20055;-78
2023/12/13 11:55:57;;;;;;;16.25;8.93;;;;;;;15.96;54.99;98009.31;5036636;28;20400;-77
2023/12/13 11:58:42;;;;;;;10.10;4.88;;;;;;;15.91;55.04;98001.34;5030757;28;20056;-78
2023/12/13 12:01:29;;;;;;;7.47;3.67;;;;;;;15.89;55.29;97982.13;5029013;28;20048;-77
2023/12/13 12:04:18;;;;;;;5.53;3.25;;;;;;;15.93;54.59;97983.09;5029098;28;20052;-77
2023/12/13 12:07:05;;;;;;;5.70;1.80;;;;;;;16.05;54.77;98006.75;5028570;28;20404;-77
2023/12/13 12:09:52;;;;;;;3.67;2.15;;;;;;;16.01;54.93;97998.50;5036076;28;20404;-77
2023/12/13 12:12:37;;;;;;;7.07;4.22;;;;;;;15.95;54.65;97970.19;5030466;28;20499;-78
2023/12/13 12:15:22;;;;;;;3.67;2.22;;;;;;;15.96;55.17;97975.28;5036918;28;20048;-77
2023/12/13 12:18:08;;;;;;;4.32;2.45;;;;;;;15.98;54.97;97982.22;5029762;28;20104;-78
2023/12/13 12:20:55;;;;;;;12.88;7.32;;;;;;;15.95;55.82;97986.25;5029839;28;20075;-76
2023/12/13 12:23:43;;;;;;;5.55;2.90;;;;;;;15.88;55.88;97975.16;5036359;28;20056;-77
2023/12/13 12:26:28;;;;;;;11.65;5.47;;;;;;;15.99;54.67;97973.88;5029446;28;20056;-76
2023/12/13 12:29:13;;;;;;;4.72;2.83;;;;;;;15.94;55.70;97979.31;5036444;28;20063;-77
2023/12/13 12:31:59;;;;;;;7.97;4.35;;;;;;;16.01;54.64;97979.72;5028371;28;20040;-77
2023/12/13 12:34:48;;;;;;;17.00;8.38;;;;;;;15.85;56.15;97978.41;5034419;28;20044;-80
2023/12/13 12:37:33;;;;;;;11.48;6.93;;;;;;;15.78;55.83;97986.84;5035761;28;20396;-76
2023/12/13 12:40:19;;;;;;;11.00;6.40;;;;;;;15.63;57.81;97987.03;5034803;28;20044;-77
2023/12/13 12:43:05;;;;;;;6.70;4.80;;;;;;;15.64;56.33;97984.09;5028863;28;20060;-77
2023/12/13 12:45:51;;;;;;;5.97;3.85;;;;;;;15.67;56.28;97985.44;5020974;28;20044;-77
2023/12/13 12:48:37;;;;;;;8.18;4.65;;;;;;;15.72;55.61;97988.78;5035108;28;20048;-77
2023/12/13 12:51:23;;;;;;;5.50;3.10;;;;;;;15.71;56.18;97979.19;5028531;28;20495;-76